createdAt,value
2018-01-20T00:00:19.820Z,55.40
2018-01-20T00:01:24.701Z,55.60
2018-01-20T00:02:29.404Z,55.50
2018-01-20T00:03:34.323Z,55.50
2018-01-20T00:04:39.141Z,55.40
2018-01-20T00:05:43.970Z,55.50
2018-01-20T00:06:48.960Z,55.60
2018-01-20T00:07:53.723Z,56.20
2018-01-20T00:08:58.606Z,55.50
2018-01-20T00:10:03.476Z,55.60
2018-01-20T00:11:08.302Z,55.60
2018-01-20T00:12:13.182Z,55.70
2018-01-20T00:13:17.984Z,55.70
2018-01-20T00:14:22.786Z,55.60
2018-01-20T00:15:27.815Z,55.70
2018-01-20T00:16:32.674Z,56.40
2018-01-20T00:17:37.448Z,55.70
2018-01-20T00:18:42.272Z,55.70
2018-01-20T00:19:47.116Z,55.80
2018-01-20T00:20:51.924Z,55.80
2018-01-20T00:21:56.745Z,55.80
2018-01-20T00:23:01.706Z,55.90
2018-01-20T00:24:06.553Z,55.90
2018-01-20T00:25:11.424Z,55.80
2018-01-20T00:26:16.287Z,55.90
2018-01-20T00:27:21.124Z,55.90
2018-01-20T00:28:25.868Z,55.90
2018-01-20T00:29:30.592Z,56.00
2018-01-20T00:30:35.493Z,56.00
2018-01-20T00:31:40.405Z,56.00
2018-01-20T00:32:45.363Z,56.00
2018-01-20T00:33:50.286Z,56.10
2018-01-20T00:34:55.253Z,56.10
2018-01-20T00:36:00.091Z,56.00
2018-01-20T00:37:04.924Z,56.00
2018-01-20T00:38:10.389Z,56.00
2018-01-20T00:39:15.358Z,56.00
2018-01-20T00:40:20.255Z,56.00
2018-01-20T00:41:25.060Z,56.00
2018-01-20T00:42:29.846Z,56.00
2018-01-20T00:43:34.683Z,56.10
2018-01-20T00:44:39.564Z,56.10
2018-01-20T00:45:44.366Z,56.10
2018-01-20T00:46:49.280Z,56.10
2018-01-20T00:47:54.140Z,56.10
2018-01-20T00:48:59.454Z,56.00
2018-01-20T00:50:04.128Z,56.00
2018-01-20T00:51:09.041Z,56.00
2018-01-20T00:52:13.928Z,56.00
2018-01-20T00:53:18.889Z,56.00
2018-01-20T00:54:23.907Z,56.00
2018-01-20T00:55:28.633Z,56.00
2018-01-20T00:56:33.539Z,56.00
2018-01-20T00:57:38.263Z,56.00
2018-01-20T00:58:43.035Z,56.00
2018-01-20T00:59:47.905Z,56.10
2018-01-20T01:00:52.746Z,55.90
2018-01-20T01:01:58.252Z,56.00
2018-01-20T01:03:03.154Z,56.00
2018-01-20T01:04:07.953Z,56.00
2018-01-20T01:05:12.803Z,56.00
2018-01-20T01:06:17.517Z,56.00
2018-01-20T01:07:22.370Z,56.00
2018-01-20T01:08:27.141Z,56.00
2018-01-20T01:09:32.093Z,56.00
2018-01-20T01:10:36.953Z,56.10
2018-01-20T01:11:42.565Z,56.10
2018-01-20T01:12:47.406Z,56.10
2018-01-20T01:13:52.287Z,56.10
2018-01-20T01:14:57.191Z,56.10
2018-01-20T01:16:02.244Z,56.10
2018-01-20T01:17:07.075Z,56.10
2018-01-20T01:18:12.352Z,56.00
2018-01-20T01:19:17.255Z,56.10
2018-01-20T01:20:22.228Z,56.20
2018-01-20T01:21:27.296Z,56.10
2018-01-20T01:22:32.083Z,56.40
2018-01-20T01:23:36.839Z,56.10
2018-01-20T01:24:41.576Z,56.20
2018-01-20T01:25:46.320Z,56.10
2018-01-20T01:26:51.269Z,56.10
2018-01-20T01:27:56.349Z,56.10
2018-01-20T01:29:01.105Z,56.10
2018-01-20T01:30:05.995Z,56.20
2018-01-20T01:31:11.042Z,56.10
2018-01-20T01:32:15.939Z,56.10
2018-01-20T01:33:20.701Z,56.10
2018-01-20T01:34:25.515Z,56.10
2018-01-20T01:35:30.482Z,56.10
2018-01-20T01:36:35.249Z,56.20
2018-01-20T01:37:39.943Z,56.20
2018-01-20T01:38:45.437Z,56.10
2018-01-20T01:39:50.450Z,56.20
2018-01-20T01:40:55.282Z,56.10
2018-01-20T01:42:00.102Z,56.20
2018-01-20T01:43:04.876Z,56.20
2018-01-20T01:44:09.770Z,56.20
2018-01-20T01:45:14.658Z,56.20
2018-01-20T01:46:19.533Z,56.20
2018-01-20T01:47:24.290Z,56.20
2018-01-20T01:48:29.045Z,56.20
2018-01-20T01:49:33.884Z,56.20
2018-01-20T01:50:38.733Z,56.20
2018-01-20T01:51:43.490Z,56.20
2018-01-20T01:52:48.251Z,56.10
2018-01-20T01:53:52.970Z,56.10
2018-01-20T01:54:57.865Z,56.10
2018-01-20T01:56:03.463Z,56.10
2018-01-20T01:57:09.449Z,56.10
2018-01-20T01:58:14.459Z,56.10
2018-01-20T01:59:19.235Z,56.10
2018-01-20T02:00:24.222Z,56.10
2018-01-20T02:01:29.140Z,56.00
2018-01-20T02:02:33.854Z,56.00
2018-01-20T02:03:38.656Z,56.00
2018-01-20T02:04:43.584Z,56.00
2018-01-20T02:05:48.461Z,56.00
2018-01-20T02:06:53.383Z,56.00
2018-01-20T02:07:58.426Z,56.00
2018-01-20T02:09:03.169Z,56.00
2018-01-20T02:10:07.948Z,56.00
2018-01-20T02:11:12.854Z,55.90
2018-01-20T02:12:17.608Z,55.90
2018-01-20T02:13:22.419Z,56.00
2018-01-20T02:14:27.360Z,56.00
2018-01-20T02:15:33.216Z,55.90
2018-01-20T02:16:38.188Z,55.90
2018-01-20T02:17:42.928Z,55.90
2018-01-20T02:18:47.828Z,56.00
2018-01-20T02:19:52.597Z,56.00
2018-01-20T02:20:57.344Z,56.00
2018-01-20T02:22:02.158Z,56.00
2018-01-20T02:23:06.918Z,56.00
2018-01-20T02:24:11.774Z,56.00
2018-01-20T02:25:16.597Z,56.10
2018-01-20T02:26:21.352Z,56.10
2018-01-20T02:27:26.021Z,56.10
2018-01-20T02:28:30.914Z,56.10
2018-01-20T02:29:36.201Z,56.10
2018-01-20T02:30:41.118Z,56.10
2018-01-20T02:31:46.002Z,56.00
2018-01-20T02:32:50.689Z,56.00
2018-01-20T02:33:56.591Z,56.10
2018-01-20T02:35:01.337Z,56.00
2018-01-20T02:36:06.112Z,56.10
2018-01-20T02:37:10.975Z,56.10
2018-01-20T02:38:16.205Z,56.10
2018-01-20T02:39:21.521Z,56.10
2018-01-20T02:40:26.368Z,56.10
2018-01-20T02:41:31.252Z,56.10
2018-01-20T02:42:36.010Z,56.10
2018-01-20T02:43:40.800Z,56.00
2018-01-20T02:44:45.619Z,56.10
2018-01-20T02:45:50.524Z,56.00
2018-01-20T02:46:55.376Z,56.00
2018-01-20T02:48:00.417Z,56.10
2018-01-20T02:49:05.230Z,56.10
2018-01-20T02:50:10.085Z,56.10
2018-01-20T02:51:15.022Z,56.10
2018-01-20T02:52:20.015Z,56.10
2018-01-20T02:53:24.750Z,56.10
2018-01-20T02:54:29.533Z,56.10
2018-01-20T02:55:34.412Z,56.10
2018-01-20T02:56:39.243Z,56.10
2018-01-20T02:57:44.052Z,56.10
2018-01-20T02:58:48.871Z,56.10
2018-01-20T02:59:53.649Z,56.10
2018-01-20T03:00:58.507Z,56.10
2018-01-20T03:02:03.240Z,56.10
2018-01-20T03:03:08.313Z,56.10
2018-01-20T03:04:13.672Z,56.00
2018-01-20T03:05:18.566Z,56.00
2018-01-20T03:06:23.496Z,56.00
2018-01-20T03:07:28.322Z,56.00
2018-01-20T03:08:33.169Z,56.00
2018-01-20T03:09:37.974Z,55.90
2018-01-20T03:10:43.587Z,55.90
2018-01-20T03:11:48.423Z,55.90
2018-01-20T03:12:53.226Z,55.90
2018-01-20T03:13:57.995Z,55.90
2018-01-20T03:15:02.752Z,55.80
2018-01-20T03:16:07.596Z,55.80
2018-01-20T03:17:12.530Z,55.80
2018-01-20T03:18:17.355Z,55.80
2018-01-20T03:19:22.273Z,55.80
2018-01-20T03:20:27.062Z,55.80
2018-01-20T03:21:32.105Z,55.80
2018-01-20T03:22:37.102Z,55.80
2018-01-20T03:23:42.035Z,55.80
2018-01-20T03:24:47.005Z,55.80
2018-01-20T03:25:51.780Z,55.80
2018-01-20T03:26:56.624Z,55.80
2018-01-20T03:28:01.388Z,55.80
2018-01-20T03:29:06.369Z,55.80
2018-01-20T03:30:11.292Z,55.70
2018-01-20T03:31:15.999Z,55.80
2018-01-20T03:32:20.782Z,55.80
2018-01-20T03:33:25.694Z,55.80
2018-01-20T03:34:30.514Z,55.80
2018-01-20T03:35:35.427Z,55.80
2018-01-20T03:36:40.380Z,55.80
2018-01-20T03:37:45.207Z,55.80
2018-01-20T03:38:50.574Z,55.80
2018-01-20T03:39:55.505Z,55.80
2018-01-20T03:41:00.290Z,55.80
2018-01-20T03:42:05.105Z,55.80
2018-01-20T03:43:10.086Z,55.80
2018-01-20T03:44:15.003Z,55.80
2018-01-20T03:45:19.827Z,55.80
2018-01-20T03:46:24.603Z,55.80
2018-01-20T03:47:29.457Z,55.80
2018-01-20T03:48:34.621Z,55.80
2018-01-20T03:49:39.441Z,55.80
2018-01-20T03:50:44.333Z,55.80
2018-01-20T03:51:49.252Z,55.80
2018-01-20T03:52:54.062Z,55.80
2018-01-20T03:53:58.932Z,55.80
2018-01-20T03:55:03.700Z,55.80
2018-01-20T03:56:08.534Z,55.80
2018-01-20T03:57:13.342Z,55.80
2018-01-20T03:58:18.116Z,55.80
2018-01-20T03:59:23.045Z,55.80
2018-01-20T04:00:27.932Z,55.80
2018-01-20T04:01:32.690Z,55.90
2018-01-20T04:02:37.496Z,55.80
2018-01-20T04:03:42.930Z,55.80
2018-01-20T04:04:47.811Z,55.70
2018-01-20T04:05:52.685Z,55.80
2018-01-20T04:06:57.917Z,55.70
2018-01-20T04:08:02.860Z,55.80
2018-01-20T04:09:07.678Z,55.70
2018-01-20T04:10:12.507Z,55.80
2018-01-20T04:11:17.409Z,55.80
2018-01-20T04:12:22.233Z,55.80
2018-01-20T04:13:27.036Z,55.70
2018-01-20T04:14:31.804Z,55.80
2018-01-20T04:15:36.762Z,55.80
2018-01-20T04:16:41.687Z,55.70
2018-01-20T04:17:46.509Z,55.70
2018-01-20T04:18:51.368Z,55.70
2018-01-20T04:19:56.280Z,55.70
2018-01-20T04:21:01.273Z,55.70
2018-01-20T04:22:06.155Z,55.70
2018-01-20T04:23:10.920Z,55.70
2018-01-20T04:24:15.772Z,55.70
2018-01-20T04:25:20.604Z,55.70
2018-01-20T04:26:25.496Z,55.70
2018-01-20T04:27:30.278Z,55.60
2018-01-20T04:28:35.165Z,55.60
2018-01-20T04:29:40.026Z,56.30
2018-01-20T04:30:44.893Z,55.70
2018-01-20T04:31:49.695Z,55.70
2018-01-20T04:32:54.568Z,55.70
2018-01-20T04:33:59.447Z,55.70
2018-01-20T04:35:04.317Z,55.70
2018-01-20T04:36:09.074Z,55.60
2018-01-20T04:37:13.911Z,55.50
2018-01-20T04:38:18.785Z,55.70
2018-01-20T04:39:23.698Z,55.70
2018-01-20T04:40:28.566Z,55.60
2018-01-20T04:41:33.380Z,55.70
2018-01-20T04:42:38.249Z,55.60
2018-01-20T04:43:43.116Z,55.60
2018-01-20T04:44:47.885Z,55.60
2018-01-20T04:45:52.848Z,55.60
2018-01-20T04:46:57.578Z,55.60
2018-01-20T04:48:02.451Z,55.60
2018-01-20T04:49:07.297Z,55.70
2018-01-20T04:50:12.050Z,55.50
2018-01-20T04:51:16.968Z,55.70
2018-01-20T04:52:21.855Z,55.60
2018-01-20T04:53:26.733Z,55.70
2018-01-20T04:54:31.771Z,55.70
2018-01-20T04:55:36.770Z,55.50
2018-01-20T04:56:41.547Z,55.60
2018-01-20T04:57:46.278Z,55.60
2018-01-20T04:58:51.112Z,55.60
2018-01-20T04:59:55.974Z,55.60
2018-01-20T05:01:00.762Z,55.50
2018-01-20T05:02:05.692Z,55.60
2018-01-20T05:03:10.596Z,55.50
2018-01-20T05:04:15.721Z,55.60
2018-01-20T05:05:20.681Z,55.60
2018-01-20T05:06:25.562Z,55.50
2018-01-20T05:07:30.376Z,55.60
2018-01-20T05:08:35.234Z,55.50
2018-01-20T05:09:40.000Z,55.50
2018-01-20T05:10:45.130Z,55.40
2018-01-20T05:11:49.929Z,55.50
2018-01-20T05:12:54.710Z,55.50
2018-01-20T05:13:59.609Z,55.60
2018-01-20T05:15:04.430Z,55.50
2018-01-20T05:16:09.229Z,55.40
2018-01-20T05:17:14.004Z,55.70
2018-01-20T05:18:18.822Z,55.40
2018-01-20T05:19:23.641Z,55.40
2018-01-20T05:20:28.657Z,55.40
2018-01-20T05:21:33.517Z,55.40
2018-01-20T05:22:38.909Z,55.40
2018-01-20T05:23:43.698Z,55.50
2018-01-20T05:24:48.563Z,55.40
2018-01-20T05:25:53.214Z,55.40
2018-01-20T05:26:58.111Z,55.40
2018-01-20T05:28:03.493Z,55.40
2018-01-20T05:29:08.951Z,55.40
2018-01-20T05:30:14.444Z,55.40
2018-01-20T05:31:19.814Z,55.40
2018-01-20T05:32:25.021Z,55.40
2018-01-20T05:33:29.959Z,55.40
2018-01-20T05:34:34.770Z,55.40
2018-01-20T05:35:39.726Z,55.40
2018-01-20T05:36:44.458Z,55.30
2018-01-20T05:37:49.214Z,55.40
2018-01-20T05:38:54.026Z,55.40
2018-01-20T05:39:58.740Z,55.40
2018-01-20T05:41:03.738Z,55.40
2018-01-20T05:42:08.567Z,55.40
2018-01-20T05:43:13.332Z,55.40
2018-01-20T05:44:18.104Z,55.40
2018-01-20T05:45:23.252Z,55.40
2018-01-20T05:46:27.977Z,55.40
2018-01-20T05:47:32.792Z,55.40
2018-01-20T05:48:37.685Z,55.40
2018-01-20T05:49:42.450Z,55.30
2018-01-20T05:50:47.200Z,55.30
2018-01-20T05:51:51.962Z,55.40
2018-01-20T05:52:56.813Z,55.40
2018-01-20T05:54:01.603Z,55.40
2018-01-20T05:55:06.494Z,55.40
2018-01-20T05:56:11.297Z,55.40
2018-01-20T05:57:16.232Z,55.40
2018-01-20T05:58:21.089Z,55.40
2018-01-20T05:59:26.134Z,55.30
2018-01-20T06:00:30.915Z,55.40
2018-01-20T06:01:35.776Z,55.30
2018-01-20T06:02:40.687Z,55.40
2018-01-20T06:03:45.589Z,55.40
2018-01-20T06:04:50.393Z,55.40
2018-01-20T06:05:55.196Z,55.40
2018-01-20T06:06:59.938Z,55.40
2018-01-20T06:08:04.694Z,55.40
2018-01-20T06:09:09.482Z,55.40
2018-01-20T06:10:14.349Z,55.30
2018-01-20T06:11:19.128Z,55.40
2018-01-20T06:12:23.989Z,55.30
2018-01-20T06:13:28.762Z,55.30
2018-01-20T06:14:33.603Z,55.30
2018-01-20T06:15:41.466Z,55.30
2018-01-20T06:16:46.313Z,55.30
2018-01-20T06:17:51.477Z,55.30
2018-01-20T06:18:56.502Z,55.30
2018-01-20T06:20:01.921Z,55.30
2018-01-20T06:21:06.673Z,55.40
2018-01-20T06:22:11.599Z,55.30
2018-01-20T06:23:16.529Z,55.30
2018-01-20T06:24:21.379Z,55.30
2018-01-20T06:25:26.268Z,55.30
2018-01-20T06:26:31.195Z,55.30
2018-01-20T06:27:35.889Z,55.30
2018-01-20T06:28:40.649Z,55.30
2018-01-20T06:29:45.514Z,55.30
2018-01-20T06:30:50.377Z,55.30
2018-01-20T06:31:55.323Z,55.40
2018-01-20T06:33:00.073Z,55.40
2018-01-20T06:34:04.914Z,55.30
2018-01-20T06:35:09.592Z,55.30
2018-01-20T06:36:14.930Z,55.20
2018-01-20T06:37:19.868Z,55.30
2018-01-20T06:38:24.696Z,55.30
2018-01-20T06:39:29.455Z,55.20
2018-01-20T06:40:34.310Z,55.30
2018-01-20T06:41:39.042Z,55.30
2018-01-20T06:42:43.794Z,55.20
2018-01-20T06:43:48.641Z,55.20
2018-01-20T06:44:53.411Z,55.30
2018-01-20T06:45:58.215Z,55.30
2018-01-20T06:47:03.258Z,55.30
2018-01-20T06:48:08.178Z,55.20
2018-01-20T06:49:12.894Z,55.20
2018-01-20T06:50:17.810Z,55.20
2018-01-20T06:51:22.563Z,55.30
2018-01-20T06:52:27.429Z,55.20
2018-01-20T06:53:32.335Z,55.20
2018-01-20T06:54:38.436Z,55.30
2018-01-20T06:55:43.203Z,55.10
2018-01-20T06:56:47.993Z,55.20
2018-01-20T06:57:53.179Z,55.20
2018-01-20T06:58:58.482Z,55.10
2018-01-20T07:00:03.429Z,55.00
2018-01-20T07:01:08.203Z,55.10
2018-01-20T07:02:13.081Z,55.10
2018-01-20T07:03:17.939Z,55.00
2018-01-20T07:04:22.764Z,55.10
2018-01-20T07:05:27.807Z,55.10
2018-01-20T07:06:32.522Z,55.40
2018-01-20T07:07:37.532Z,55.60
2018-01-20T07:08:42.369Z,55.80
2018-01-20T07:09:47.076Z,55.80
2018-01-20T07:10:51.826Z,55.70
2018-01-20T07:11:56.572Z,56.00
2018-01-20T07:13:01.409Z,56.10
2018-01-20T07:14:06.288Z,55.90
2018-01-20T07:15:11.152Z,55.80
2018-01-20T07:16:15.961Z,55.80
2018-01-20T07:17:20.873Z,55.60
2018-01-20T07:18:25.799Z,55.40
2018-01-20T07:19:30.942Z,55.30
2018-01-20T07:20:35.776Z,55.20
2018-01-20T07:21:40.735Z,55.20
2018-01-20T07:22:45.489Z,55.00
2018-01-20T07:23:50.333Z,55.00
2018-01-20T07:24:55.156Z,54.90
2018-01-20T07:26:00.007Z,54.80
2018-01-20T07:27:04.859Z,54.60
2018-01-20T07:28:09.625Z,54.30
2018-01-20T07:29:14.502Z,54.10
2018-01-20T07:30:19.322Z,54.00
2018-01-20T07:31:25.146Z,53.80
2018-01-20T07:32:30.321Z,53.70
2018-01-20T07:33:35.135Z,53.50
2018-01-20T07:34:39.983Z,53.30
2018-01-20T07:35:44.808Z,53.20
2018-01-20T07:36:49.570Z,53.00
2018-01-20T07:37:54.357Z,52.90
2018-01-20T07:38:59.221Z,52.80
2018-01-20T07:40:03.953Z,52.70
2018-01-20T07:41:08.691Z,52.60
2018-01-20T07:43:17.273Z,51.90
2018-01-20T07:44:22.112Z,52.60
2018-01-20T07:45:29.440Z,52.50
2018-01-20T07:46:34.748Z,52.40
2018-01-20T07:47:39.584Z,52.50
2018-01-20T07:48:44.479Z,52.50
2018-01-20T07:49:49.540Z,52.70
2018-01-20T07:50:54.467Z,52.90
2018-01-20T07:52:00.456Z,53.20
2018-01-20T07:53:05.859Z,53.40
2018-01-20T07:54:10.729Z,53.50
2018-01-20T07:55:15.746Z,53.50
2018-01-20T07:56:20.589Z,53.70
2018-01-20T07:57:25.425Z,53.70
2018-01-20T07:58:30.344Z,53.80
2018-01-20T07:59:35.227Z,53.80
2018-01-20T08:00:40.149Z,53.90
2018-01-20T08:01:45.340Z,53.90
2018-01-20T08:02:50.179Z,54.00
2018-01-20T08:03:55.075Z,54.00
2018-01-20T08:04:59.986Z,53.70
2018-01-20T08:06:04.784Z,53.10
2018-01-20T08:07:09.545Z,53.30
2018-01-20T08:08:14.549Z,53.50
2018-01-20T08:09:19.485Z,53.70
2018-01-20T08:10:24.325Z,53.80
2018-01-20T08:11:29.163Z,53.80
2018-01-20T08:12:34.106Z,53.80
2018-01-20T08:13:39.020Z,53.80
2018-01-20T08:14:43.866Z,53.80
2018-01-20T08:15:49.499Z,53.80
2018-01-20T08:16:54.258Z,53.70
2018-01-20T08:17:59.178Z,53.60
2018-01-20T08:19:04.046Z,53.70
2018-01-20T08:20:09.565Z,53.70
2018-01-20T08:21:14.426Z,53.70
2018-01-20T08:22:19.229Z,53.80
2018-01-20T08:23:24.146Z,53.80
2018-01-20T08:24:28.965Z,53.80
2018-01-20T08:25:33.902Z,53.90
2018-01-20T08:26:39.343Z,54.00
2018-01-20T08:27:44.291Z,54.10
2018-01-20T08:28:49.493Z,54.00
2018-01-20T08:29:54.683Z,54.00
2018-01-20T08:30:59.861Z,54.10
2018-01-20T08:32:05.568Z,54.20
2018-01-20T08:33:10.474Z,54.30
2018-01-20T08:34:15.672Z,54.40
2018-01-20T08:35:23.037Z,54.60
2018-01-20T08:36:28.411Z,54.70
2018-01-20T08:37:33.838Z,54.90
2018-01-20T08:38:39.201Z,54.70
2018-01-20T08:39:44.531Z,54.40
2018-01-20T08:40:50.034Z,54.20
2018-01-20T08:41:57.525Z,53.90
2018-01-20T08:43:03.268Z,53.90
2018-01-20T08:44:08.928Z,53.80
2018-01-20T08:45:14.246Z,53.70
2018-01-20T08:46:19.255Z,53.80
2018-01-20T08:47:24.665Z,53.70
2018-01-20T08:48:30.205Z,53.80
2018-01-20T08:49:35.584Z,53.80
2018-01-20T08:50:40.940Z,53.70
2018-01-20T08:51:46.190Z,53.80
2018-01-20T08:52:51.010Z,53.90
2018-01-20T08:53:56.820Z,53.90
2018-01-20T08:55:01.998Z,53.90
2018-01-20T08:56:07.427Z,54.00
2018-01-20T08:57:12.499Z,54.00
2018-01-20T08:58:17.563Z,53.90
2018-01-20T08:59:22.743Z,53.90
2018-01-20T09:00:27.917Z,54.00
2018-01-20T09:01:32.877Z,54.00
2018-01-20T09:02:37.921Z,54.00
2018-01-20T09:03:42.741Z,54.00
2018-01-20T09:04:47.473Z,54.10
2018-01-20T09:05:52.419Z,54.10
2018-01-20T09:06:57.315Z,54.10
2018-01-20T09:08:02.238Z,54.20
2018-01-20T09:09:07.088Z,54.30
2018-01-20T09:10:12.043Z,54.50
2018-01-20T09:11:17.133Z,54.80
2018-01-20T09:12:21.943Z,54.90
2018-01-20T09:13:27.122Z,55.10
2018-01-20T09:14:31.816Z,55.10
2018-01-20T09:15:36.649Z,55.20
2018-01-20T09:16:41.900Z,55.20
2018-01-20T09:17:46.894Z,55.10
2018-01-20T09:18:51.753Z,55.10
2018-01-20T09:19:56.602Z,55.00
2018-01-20T09:21:01.529Z,55.00
2018-01-20T09:22:06.251Z,55.00
2018-01-20T09:23:11.299Z,55.00
2018-01-20T09:24:16.219Z,55.10
2018-01-20T09:25:21.024Z,55.10
2018-01-20T09:26:25.917Z,55.10
2018-01-20T09:27:30.652Z,55.00
2018-01-20T09:28:35.451Z,55.10
2018-01-20T09:29:40.393Z,55.10
2018-01-20T09:30:45.235Z,55.00
2018-01-20T09:31:50.293Z,55.00
2018-01-20T09:32:55.345Z,55.00
2018-01-20T09:34:00.209Z,55.00
2018-01-20T09:35:05.579Z,54.90
2018-01-20T09:36:10.417Z,55.00
2018-01-20T09:37:15.524Z,55.10
2018-01-20T09:38:20.381Z,55.10
2018-01-20T09:39:26.225Z,55.00
2018-01-20T09:40:31.347Z,55.10
2018-01-20T09:41:36.366Z,55.10
2018-01-20T09:42:41.433Z,55.10
2018-01-20T09:43:46.436Z,55.00
2018-01-20T09:44:51.463Z,54.90
2018-01-20T09:45:56.761Z,54.90
2018-01-20T09:47:01.986Z,54.90
2018-01-20T09:48:06.973Z,54.90
2018-01-20T09:49:12.104Z,54.90
2018-01-20T09:50:17.230Z,54.90
2018-01-20T09:51:22.129Z,54.80
2018-01-20T09:52:27.589Z,54.80
2018-01-20T09:53:32.762Z,54.90
2018-01-20T09:54:38.124Z,55.00
2018-01-20T09:55:43.137Z,55.00
2018-01-20T09:56:47.967Z,55.00
2018-01-20T09:57:53.035Z,55.00
2018-01-20T09:58:58.004Z,54.90
2018-01-20T10:00:03.109Z,55.10
2018-01-20T10:01:08.236Z,55.10
2018-01-20T10:02:13.165Z,55.20
2018-01-20T10:03:17.942Z,55.10
2018-01-20T10:04:22.732Z,55.10
2018-01-20T10:05:27.553Z,55.40
2018-01-20T10:06:32.522Z,56.10
2018-01-20T10:07:37.609Z,55.70
2018-01-20T10:08:42.701Z,55.60
2018-01-20T10:09:47.628Z,55.50
2018-01-20T10:10:53.760Z,55.40
2018-01-20T10:11:58.840Z,55.40
2018-01-20T10:13:03.792Z,55.70
2018-01-20T10:14:08.546Z,55.90
2018-01-20T10:15:13.479Z,56.10
2018-01-20T10:16:18.407Z,56.70
2018-01-20T10:17:23.243Z,57.30
2018-01-20T10:18:28.208Z,57.20
2018-01-20T10:19:33.111Z,57.70
2018-01-20T10:20:38.004Z,57.60
2018-01-20T10:21:42.902Z,57.80
2018-01-20T10:22:47.699Z,57.70
2018-01-20T10:23:52.622Z,57.70
2018-01-20T10:24:57.465Z,57.80
2018-01-20T10:26:02.839Z,58.20
2018-01-20T10:27:07.633Z,58.50
2018-01-20T10:28:12.604Z,59.40
2018-01-20T10:29:18.311Z,59.10
2018-01-20T10:30:23.257Z,58.60
2018-01-20T10:31:28.383Z,58.60
2018-01-20T10:32:33.158Z,58.60
2018-01-20T10:33:38.120Z,58.60
2018-01-20T10:34:42.881Z,58.70
2018-01-20T10:35:47.819Z,58.60
2018-01-20T10:36:52.689Z,58.50
2018-01-20T10:37:57.555Z,58.60
2018-01-20T10:39:03.286Z,58.60
2018-01-20T10:40:08.021Z,58.60
2018-01-20T10:41:13.022Z,58.60
2018-01-20T10:42:17.919Z,58.70
2018-01-20T10:43:22.802Z,58.90
2018-01-20T10:44:27.774Z,58.80
2018-01-20T10:45:32.552Z,58.70
2018-01-20T10:46:37.525Z,58.80
2018-01-20T10:47:42.923Z,58.80
2018-01-20T10:48:47.659Z,58.70
2018-01-20T10:49:52.732Z,58.60
2018-01-20T10:50:57.581Z,58.50
2018-01-20T10:52:02.421Z,58.40
2018-01-20T10:53:07.510Z,58.30
2018-01-20T10:54:13.080Z,58.30
2018-01-20T10:55:17.911Z,58.30
2018-01-20T10:56:23.083Z,58.20
2018-01-20T10:57:27.942Z,58.10
2018-01-20T10:58:32.822Z,58.10
2018-01-20T10:59:37.639Z,58.10
2018-01-20T11:00:42.424Z,58.10
2018-01-20T11:01:47.306Z,58.20
2018-01-20T11:02:52.201Z,58.10
2018-01-20T11:03:57.180Z,58.10
2018-01-20T11:05:01.882Z,58.10
2018-01-20T11:06:07.225Z,58.10
2018-01-20T11:07:12.003Z,58.20
2018-01-20T11:08:16.722Z,58.10
2018-01-20T11:09:21.670Z,58.20
2018-01-20T11:10:26.418Z,58.30
2018-01-20T11:11:31.612Z,58.30
2018-01-20T11:12:36.515Z,58.40
2018-01-20T11:13:41.313Z,58.40
2018-01-20T11:14:46.049Z,58.40
2018-01-20T11:15:50.988Z,58.40
2018-01-20T11:16:55.937Z,58.40
2018-01-20T11:18:00.920Z,58.60
2018-01-20T11:19:05.926Z,58.60
2018-01-20T11:20:10.893Z,58.60
2018-01-20T11:21:15.769Z,59.30
2018-01-20T11:22:20.817Z,58.60
2018-01-20T11:23:25.831Z,58.60
2018-01-20T11:24:31.577Z,58.60
2018-01-20T11:25:36.628Z,58.60
2018-01-20T11:26:41.509Z,58.50
2018-01-20T11:27:46.330Z,58.40
2018-01-20T11:28:51.258Z,59.50
2018-01-20T11:29:56.013Z,58.80
2018-01-20T11:31:01.765Z,59.30
2018-01-20T11:32:06.596Z,59.00
2018-01-20T11:33:11.740Z,59.00
2018-01-20T11:34:16.498Z,59.00
2018-01-20T11:35:21.661Z,59.00
2018-01-20T11:36:27.691Z,58.90
2018-01-20T11:37:32.673Z,59.00
2018-01-20T11:38:37.620Z,59.00
2018-01-20T11:39:42.438Z,58.90
2018-01-20T11:40:47.205Z,58.90
2018-01-20T11:41:51.949Z,59.00
2018-01-20T11:42:56.943Z,59.00
2018-01-20T11:44:01.897Z,59.10
2018-01-20T11:45:06.703Z,59.30
2018-01-20T11:46:11.518Z,59.40
2018-01-20T11:47:16.468Z,59.30
2018-01-20T11:48:21.408Z,59.30
2018-01-20T11:49:26.379Z,59.20
2018-01-20T11:50:31.275Z,59.40
2018-01-20T11:51:36.159Z,59.40
2018-01-20T11:52:41.130Z,59.10
2018-01-20T11:53:46.704Z,59.20
2018-01-20T11:54:51.665Z,59.20
2018-01-20T11:55:56.489Z,59.80
2018-01-20T11:57:01.386Z,59.90
2018-01-20T11:58:06.144Z,60.00
2018-01-20T11:59:10.980Z,60.20
2018-01-20T12:00:15.874Z,60.20
2018-01-20T12:01:20.813Z,60.00
2018-01-20T12:02:25.574Z,60.50
2018-01-20T12:03:30.480Z,60.40
2018-01-20T12:04:35.452Z,60.20
2018-01-20T12:05:40.380Z,60.10
2018-01-20T12:06:45.247Z,60.10
2018-01-20T12:07:50.030Z,60.10
2018-01-20T12:08:54.911Z,60.20
2018-01-20T12:09:59.752Z,60.20
2018-01-20T12:11:04.569Z,60.30
2018-01-20T12:12:09.580Z,60.30
2018-01-20T12:13:14.463Z,60.30
2018-01-20T12:14:19.312Z,60.30
2018-01-20T12:15:24.125Z,60.30
2018-01-20T12:16:29.009Z,60.30
2018-01-20T12:17:34.011Z,60.30
2018-01-20T12:18:38.849Z,60.30
2018-01-20T12:19:43.935Z,60.30
2018-01-20T12:20:48.729Z,60.30
2018-01-20T12:21:53.564Z,60.60
2018-01-20T12:22:58.428Z,60.40
2018-01-20T12:24:03.213Z,60.40
2018-01-20T12:25:08.129Z,60.30
2018-01-20T12:26:13.003Z,60.30
2018-01-20T12:27:18.939Z,60.40
2018-01-20T12:28:24.614Z,60.40
2018-01-20T12:29:29.934Z,60.30
2018-01-20T12:30:35.443Z,60.30
2018-01-20T12:31:41.176Z,60.40
2018-01-20T12:32:46.525Z,60.70
2018-01-20T12:33:51.861Z,60.60
2018-01-20T12:34:57.308Z,60.50
2018-01-20T12:36:03.395Z,60.40
2018-01-20T12:37:08.733Z,60.40
2018-01-20T12:38:14.100Z,60.30
2018-01-20T12:39:20.169Z,60.20
2018-01-20T12:40:25.487Z,60.10
2018-01-20T12:41:31.010Z,60.10
2018-01-20T12:42:36.262Z,60.00
2018-01-20T12:43:41.616Z,60.00
2018-01-20T12:44:47.004Z,59.90
2018-01-20T12:45:52.352Z,60.00
2018-01-20T12:46:57.794Z,60.00
2018-01-20T12:48:03.228Z,60.00
2018-01-20T12:49:08.603Z,60.00
2018-01-20T12:50:13.913Z,59.90
2018-01-20T12:51:19.199Z,59.90
2018-01-20T12:52:24.326Z,59.80
2018-01-20T12:53:30.122Z,59.80
2018-01-20T12:54:35.031Z,59.80
2018-01-20T12:55:39.822Z,59.70
2018-01-20T12:56:44.732Z,59.70
2018-01-20T12:57:49.621Z,59.60
2018-01-20T12:58:54.422Z,59.70
2018-01-20T12:59:59.159Z,59.60
2018-01-20T13:01:03.989Z,59.60
2018-01-20T13:02:08.924Z,59.60
2018-01-20T13:03:13.732Z,59.60
2018-01-20T13:04:18.547Z,59.70
2018-01-20T13:05:23.505Z,59.60
2018-01-20T13:06:28.380Z,59.60
2018-01-20T13:07:33.108Z,59.50
2018-01-20T13:08:38.004Z,59.50
2018-01-20T13:09:42.861Z,59.40
2018-01-20T13:10:47.683Z,59.40
2018-01-20T13:11:52.521Z,59.50
2018-01-20T13:12:57.320Z,59.50
2018-01-20T13:14:02.163Z,59.40
2018-01-20T13:15:07.003Z,59.40
2018-01-20T13:16:11.770Z,59.40
2018-01-20T13:17:16.587Z,59.50
2018-01-20T13:18:21.422Z,59.40
2018-01-20T13:19:26.884Z,59.40
2018-01-20T13:20:31.717Z,59.30
2018-01-20T13:21:36.516Z,59.40
2018-01-20T13:22:41.268Z,59.40
2018-01-20T13:23:46.071Z,59.40
2018-01-20T13:24:50.881Z,59.40
2018-01-20T13:28:14.541Z,59.40
2018-01-20T13:29:19.380Z,59.30
2018-01-20T13:30:24.172Z,59.40
2018-01-20T13:31:29.036Z,59.40
2018-01-20T13:32:33.909Z,59.40
2018-01-20T13:33:38.860Z,59.40
2018-01-20T13:34:43.757Z,59.40
2018-01-20T13:35:48.657Z,59.40
2018-01-20T13:36:53.408Z,59.30
2018-01-20T13:37:58.185Z,59.30
2018-01-20T13:39:03.038Z,59.40
2018-01-20T13:40:07.787Z,59.30
2018-01-20T13:41:12.576Z,59.30
2018-01-20T13:42:17.524Z,59.40
2018-01-20T13:43:22.350Z,59.30
2018-01-20T13:44:27.164Z,59.40
2018-01-20T13:45:32.283Z,59.40
2018-01-20T13:46:37.136Z,59.30
2018-01-20T13:47:41.934Z,59.40
2018-01-20T13:48:46.667Z,59.30
2018-01-20T13:49:51.557Z,59.30
2018-01-20T13:50:56.331Z,59.30
2018-01-20T13:52:01.135Z,59.30
2018-01-20T13:53:05.887Z,59.30
2018-01-20T13:54:10.854Z,59.20
2018-01-20T13:55:15.862Z,59.20
2018-01-20T13:56:20.611Z,59.20
2018-01-20T13:57:25.462Z,59.20
2018-01-20T13:58:30.592Z,59.20
2018-01-20T13:59:35.409Z,59.10